Time;durP1;ratioP1;P1;durP2;ratioP2;P2;SDS_P1;SDS_P2;PMS_P1;PMS_P2;Temp;Humidity;BMP_temperature;BMP_pressure;BME280_temperature;BME280_humidity;BME280_pressure;Samples;Min_cycle;Max_cycle;Signal;HPM_P1;HPM_P2
2023/09/27 00:00:13;;;;;;;11.48;8.27;;;;;;;10.08;100.00;98983.94;6106823;19;20025;-74
2023/09/27 00:02:14;;;;;;;10.30;7.95;;;;;;;10.13;100.00;98983.66;6107823;19;20066;-74
2023/09/27 00:04:14;;;;;;;13.15;9.30;;;;;;;10.14;100.00;98985.25;6107896;19;20002;-74
2023/09/27 00:06:14;;;;;;;12.38;8.40;;;;;;;10.12;100.00;98984.81;6107913;19;20853;-74
2023/09/27 00:08:15;;;;;;;11.50;9.05;;;;;;;10.14;100.00;98974.19;6108367;19;19999;-74
2023/09/27 00:10:16;;;;;;;15.75;9.32;;;;;;;10.11;100.00;98977.69;6104002;19;20010;-74
2023/09/27 00:12:18;;;;;;;15.27;9.88;;;;;;;10.09;100.00;98981.97;6108647;19;20006;-74
2023/09/27 00:14:18;;;;;;;13.57;9.10;;;;;;;10.21;100.00;98990.13;6108816;19;20007;-74
2023/09/27 00:16:20;;;;;;;14.20;8.82;;;;;;;10.32;100.00;98990.38;6108193;19;20335;-74
2023/09/27 00:18:20;;;;;;;11.60;8.73;;;;;;;10.28;100.00;98992.28;6106285;19;22907;-74
2023/09/27 00:20:21;;;;;;;14.52;8.35;;;;;;;10.24;100.00;98983.09;6105545;19;20022;-74
2023/09/27 00:22:22;;;;;;;12.13;7.82;;;;;;;10.25;100.00;98979.97;6108426;19;20026;-74
2023/09/27 00:24:22;;;;;;;11.27;8.82;;;;;;;10.29;100.00;98986.38;6107865;19;20010;-74
2023/09/27 00:26:22;;;;;;;12.52;8.73;;;;;;;10.27;100.00;98974.09;6107329;19;20480;-74
2023/09/27 00:28:23;;;;;;;13.80;9.23;;;;;;;10.21;100.00;98968.00;6107986;19;20014;-74
2023/09/27 00:30:23;;;;;;;13.10;9.55;;;;;;;10.19;100.00;98977.84;6106371;19;20006;-74
2023/09/27 00:32:23;;;;;;;14.15;8.90;;;;;;;10.17;100.00;98989.25;6108152;19;20006;-74
2023/09/27 00:34:24;;;;;;;11.27;8.07;;;;;;;10.17;100.00;98975.41;6106752;19;20010;-74
2023/09/27 00:36:24;;;;;;;13.02;8.85;;;;;;;10.11;100.00;98974.94;6107534;19;20007;-74
2023/09/27 00:38:24;;;;;;;11.10;8.50;;;;;;;10.11;100.00;98982.41;6107897;19;20101;-74
2023/09/27 00:40:25;;;;;;;12.00;7.85;;;;;;;10.09;100.00;98988.31;6106054;19;20365;-74
2023/09/27 00:42:25;;;;;;;12.43;8.45;;;;;;;10.10;100.00;98976.09;6108607;19;20082;-74
2023/09/27 00:44:25;;;;;;;11.45;8.57;;;;;;;10.07;100.00;98974.03;6107734;19;20014;-74
2023/09/27 00:46:26;;;;;;;13.27;8.27;;;;;;;10.07;100.00;98976.00;6106004;19;20014;-74
2023/09/27 00:48:27;;;;;;;11.45;8.70;;;;;;;10.00;100.00;98965.59;6107431;19;20011;-74
2023/09/27 00:50:27;;;;;;;10.32;7.97;;;;;;;9.95;100.00;98962.31;6092306;19;20022;-74
2023/09/27 00:52:28;;;;;;;11.27;7.97;;;;;;;9.91;100.00;98973.28;6106635;19;20477;-74
2023/09/27 00:54:31;;;;;;;12.68;8.98;;;;;;;9.86;100.00;98981.88;6107998;19;20015;-74
2023/09/27 00:56:32;;;;;;;11.85;7.97;;;;;;;9.80;100.00;98980.56;6107249;19;20489;-74
2023/09/27 00:58:34;;;;;;;10.43;8.20;;;;;;;9.77;100.00;98984.03;6106632;19;20014;-74
2023/09/27 01:00:35;;;;;;;12.68;9.63;;;;;;;9.71;100.00;98979.97;6105151;19;20017;-74
2023/09/27 01:02:35;;;;;;;16.95;9.60;;;;;;;9.74;100.00;98990.28;6107072;19;20344;-74
2023/09/27 01:04:36;;;;;;;10.48;8.43;;;;;;;9.74;100.00;98990.28;6106750;19;20362;-74
2023/09/27 01:06:36;;;;;;;14.05;8.85;;;;;;;9.71;100.00;98989.03;6106762;19;20010;-74
2023/09/27 01:08:37;;;;;;;12.85;8.95;;;;;;;9.73;100.00;98991.44;6104807;19;20030;-74
2023/09/27 01:10:37;;;;;;;12.50;8.88;;;;;;;9.72;100.00;98987.06;6105082;19;20082;-74
2023/09/27 01:12:38;;;;;;;15.38;9.63;;;;;;;9.69;100.00;98993.34;6106043;19;20474;-74
2023/09/27 01:14:38;;;;;;;11.43;8.82;;;;;;;9.66;100.00;98988.50;6105978;19;20025;-74
2023/09/27 01:16:38;;;;;;;16.10;9.73;;;;;;;9.64;100.00;99001.88;6105524;19;20122;-74
2023/09/27 01:18:39;;;;;;;11.77;8.55;;;;;;;9.60;100.00;99007.34;6103593;19;20015;-74
2023/09/27 01:20:39;;;;;;;12.63;9.35;;;;;;;9.67;100.00;99009.44;6102360;19;20024;-74
2023/09/27 01:22:40;;;;;;;14.52;8.75;;;;;;;9.63;100.00;99014.09;6104920;19;20006;-74
2023/09/27 01:24:41;;;;;;;15.32;8.02;;;;;;;9.66;100.00;99005.09;6106147;19;20021;-74
2023/09/27 01:26:41;;;;;;;10.43;7.57;;;;;;;9.62;100.00;98999.50;6106521;19;20598;-74
2023/09/27 01:28:46;;;;;;;13.55;8.98;;;;;;;9.56;100.00;99010.00;6106066;19;20024;-74
2023/09/27 01:30:47;;;;;;;14.52;8.43;;;;;;;9.54;100.00;99014.28;6105147;19;20007;-74
2023/09/27 01:32:47;;;;;;;12.52;9.07;;;;;;;9.51;100.00;99020.50;6102584;19;20356;-74
2023/09/27 01:34:47;;;;;;;10.20;7.47;;;;;;;9.52;100.00;99022.16;6107740;19;20011;-74
2023/09/27 01:36:48;;;;;;;12.05;8.38;;;;;;;9.47;100.00;99014.91;6108013;19;20014;-74
2023/09/27 01:38:48;;;;;;;12.75;8.20;;;;;;;9.47;100.00;99008.59;6107201;19;20066;-74
2023/09/27 01:40:48;;;;;;;14.52;8.38;;;;;;;9.46;100.00;99001.47;6105653;19;20316;-74
2023/09/27 01:42:49;;;;;;;11.32;8.43;;;;;;;9.43;100.00;99013.22;6107254;19;20466;-74
2023/09/27 01:44:49;;;;;;;14.52;9.25;;;;;;;9.40;100.00;99013.94;6107465;19;20033;-74
2023/09/27 01:46:50;;;;;;;11.70;8.07;;;;;;;9.37;100.00;99011.91;6106583;19;20417;-74
2023/09/27 01:48:51;;;;;;;12.75;8.20;;;;;;;9.35;100.00;99006.75;6105618;19;20019;-74
2023/09/27 01:50:51;;;;;;;11.45;8.15;;;;;;;9.32;100.00;99006.63;6098875;19;20338;-74
2023/09/27 01:52:53;;;;;;;11.57;8.93;;;;;;;9.31;100.00;99010.56;6100117;19;20335;-74
2023/09/27 01:54:53;;;;;;;11.07;8.40;;;;;;;9.31;100.00;99010.56;6099429;19;20010;-74
2023/09/27 01:56:54;;;;;;;12.32;8.77;;;;;;;9.27;100.00;99014.03;6098945;19;20007;-74
2023/09/27 01:58:54;;;;;;;17.92;8.65;;;;;;;9.26;100.00;99011.63;6098802;19;20526;-74
2023/09/27 02:00:54;;;;;;;15.77;9.20;;;;;;;9.24;100.00;99002.91;6097899;19;20351;-74
2023/09/27 02:03:00;;;;;;;13.95;8.82;;;;;;;9.27;100.00;99003.00;6098437;19;20415;-74
2023/09/27 02:05:00;;;;;;;12.90;9.27;;;;;;;9.34;100.00;98993.28;6099631;19;20458;-74
2023/09/27 02:07:00;;;;;;;12.00;8.75;;;;;;;9.40;100.00;98983.56;6099715;19;20014;-74
2023/09/27 02:09:01;;;;;;;10.23;7.65;;;;;;;9.43;100.00;98978.13;6098107;19;20011;-74
2023/09/27 02:11:01;;;;;;;11.77;8.30;;;;;;;9.47;100.00;98987.28;6098494;19;20027;-74
2023/09/27 02:13:01;;;;;;;15.23;8.85;;;;;;;9.42;100.00;99003.31;6099010;19;20023;-74
2023/09/27 02:15:06;;;;;;;13.57;9.50;;;;;;;9.35;100.00;99011.44;6099690;19;20013;-74
2023/09/27 02:17:07;;;;;;;14.02;9.70;;;;;;;9.25;100.00;99004.50;6097445;19;20007;-74
2023/09/27 02:19:08;;;;;;;13.20;9.93;;;;;;;9.17;100.00;99002.72;6098942;19;20434;-74
2023/09/27 02:21:08;;;;;;;11.75;9.05;;;;;;;9.13;100.00;98988.03;6098952;19;20105;-74
2023/09/27 02:23:08;;;;;;;11.65;8.43;;;;;;;9.14;100.00;98984.91;6098852;19;20017;-74
2023/09/27 02:25:11;;;;;;;15.88;8.88;;;;;;;9.12;100.00;98994.72;6098861;19;20017;-74
2023/09/27 02:27:11;;;;;;;12.30;8.45;;;;;;;9.06;100.00;98990.59;6098836;19;20463;-74
2023/09/27 02:29:12;;;;;;;15.07;9.00;;;;;;;9.09;100.00;98992.66;6099099;19;20030;-74
2023/09/27 02:31:12;;;;;;;11.48;8.75;;;;;;;9.10;100.00;98989.56;6096980;19;20110;-74
2023/09/27 02:33:12;;;;;;;13.07;7.90;;;;;;;9.11;100.00;98982.88;6102791;19;20330;-74
2023/09/27 02:35:13;;;;;;;13.63;8.45;;;;;;;9.06;100.00;98977.59;6105762;19;20492;-73
2023/09/27 02:37:15;;;;;;;13.90;8.77;;;;;;;8.99;100.00;98974.66;6105134;19;20755;-74
2023/09/27 02:39:16;;;;;;;14.57;9.38;;;;;;;8.96;100.00;98991.94;6104931;19;20926;-74
2023/09/27 02:41:16;;;;;;;16.15;8.90;;;;;;;8.87;100.00;98988.56;6103299;19;20010;-74
2023/09/27 02:43:16;;;;;;;12.48;8.85;;;;;;;8.84;100.00;98992.78;6105145;19;20010;-74
2023/09/27 02:45:17;;;;;;;15.65;9.50;;;;;;;8.89;100.00;99000.81;6104384;19;20534;-74
2023/09/27 02:47:17;;;;;;;12.65;7.88;;;;;;;8.96;100.00;99001.03;6104796;19;20073;-74
2023/09/27 02:49:19;;;;;;;10.27;7.93;;;;;;;9.02;100.00;98990.53;6102599;19;20070;-74
2023/09/27 02:51:20;;;;;;;11.02;8.52;;;;;;;9.02;100.00;98985.00;6110086;19;20018;-74
2023/09/27 02:53:20;;;;;;;11.43;8.65;;;;;;;9.03;100.00;98986.59;6111706;19;20010;-74
2023/09/27 02:55:21;;;;;;;13.25;8.05;;;;;;;8.97;100.00;98990.78;6110766;19;20010;-74
2023/09/27 02:57:21;;;;;;;12.27;8.57;;;;;;;8.93;100.00;99001.72;6112507;19;20086;-74
2023/09/27 02:59:21;;;;;;;11.23;7.88;;;;;;;8.88;100.00;98990.16;6109701;19;20006;-74
2023/09/27 03:01:22;;;;;;;13.88;7.70;;;;;;;8.90;100.00;98976.78;6109517;19;20010;-74
2023/09/27 03:03:23;;;;;;;12.50;8.65;;;;;;;8.94;100.00;98980.47;6111796;19;20473;-74
2023/09/27 03:05:23;;;;;;;10.18;7.63;;;;;;;8.98;100.00;98975.81;6110309;19;20782;-74
2023/09/27 03:07:24;;;;;;;11.57;8.15;;;;;;;9.05;100.00;98966.94;6111051;19;20031;-74
2023/09/27 03:09:24;;;;;;;9.18;7.05;;;;;;;9.05;100.00;98964.16;6110838;19;20872;-74
2023/09/27 03:11:24;;;;;;;11.15;7.75;;;;;;;8.97;100.00;98966.75;6109712;19;23279;-74
2023/09/27 03:13:25;;;;;;;12.10;8.38;;;;;;;8.90;100.00;98972.06;6110943;19;19999;-74
2023/09/27 03:15:25;;;;;;;9.60;7.65;;;;;;;8.84;100.00;98983.72;6110652;19;20002;-74
2023/09/27 03:17:27;;;;;;;11.48;8.80;;;;;;;8.78;100.00;98988.72;6108173;19;20002;-74
2023/09/27 03:19:27;;;;;;;14.40;9.07;;;;;;;8.72;100.00;99003.91;6109563;19;20089;-74
2023/09/27 03:21:27;;;;;;;13.35;8.70;;;;;;;8.69;100.00;99004.63;6110760;19;20007;-74
2023/09/27 03:23:28;;;;;;;13.10;9.23;;;;;;;8.68;100.00;99003.81;6110225;19;20020;-74
2023/09/27 03:25:29;;;;;;;10.80;7.88;;;;;;;8.67;100.00;98990.38;6110249;19;20002;-74
2023/09/27 03:27:29;;;;;;;13.43;8.70;;;;;;;8.67;100.00;98991.16;6110814;19;20006;-74
2023/09/27 03:29:30;;;;;;;12.35;8.80;;;;;;;8.66;100.00;98986.00;6107938;19;20058;-74
2023/09/27 03:31:30;;;;;;;19.63;9.85;;;;;;;8.60;100.00;99001.19;6110243;19;20027;-73
2023/09/27 03:33:31;;;;;;;14.73;10.13;;;;;;;8.60;100.00;99001.19;6110153;19;20006;-73
2023/09/27 03:35:32;;;;;;;18.40;10.98;;;;;;;8.53;100.00;98998.28;6109309;19;20078;-74
2023/09/27 03:37:34;;;;;;;15.05;9.52;;;;;;;8.53;100.00;98996.31;6110267;19;20010;-74
2023/09/27 03:39:35;;;;;;;14.88;9.73;;;;;;;8.50;100.00;98991.47;6109232;19;20351;-74
2023/09/27 03:41:36;;;;;;;15.38;9.27;;;;;;;8.50;100.00;98994.25;6109860;19;20110;-74
2023/09/27 03:43:36;;;;;;;15.80;9.68;;;;;;;8.43;100.00;98985.75;6108448;19;19999;-74
2023/09/27 03:45:36;;;;;;;13.73;9.05;;;;;;;8.44;100.00;98985.44;6109072;19;20003;-74
2023/09/27 03:47:37;;;;;;;13.60;8.80;;;;;;;8.48;100.00;98982.78;6109251;19;20023;-74
2023/09/27 03:49:40;;;;;;;29.77;9.95;;;;;;;8.43;100.00;98981.06;6108589;19;20003;-74
2023/09/27 03:51:40;;;;;;;16.20;9.63;;;;;;;8.39;100.00;98984.88;6105158;19;20477;-74
2023/09/27 03:53:40;;;;;;;12.50;9.02;;;;;;;8.36;100.00;98989.16;6109286;19;20006;-74
2023/09/27 03:55:41;;;;;;;15.43;8.93;;;;;;;8.29;100.00;98982.59;6109910;19;20007;-74
2023/09/27 03:57:41;;;;;;;12.00;9.18;;;;;;;8.22;100.00;98996.97;6109367;19;20029;-74
2023/09/27 03:59:42;;;;;;;11.93;8.43;;;;;;;8.19;100.00;98997.66;6106288;19;19999;-74
2023/09/27 04:01:42;;;;;;;12.25;9.10;;;;;;;8.13;100.00;98997.13;6109689;19;19999;-74
2023/09/27 04:03:42;;;;;;;11.77;7.95;;;;;;;8.17;100.00;99000.75;6109875;19;20017;-74
2023/09/27 04:05:43;;;;;;;11.13;7.93;;;;;;;8.21;100.00;99020.19;6104602;19;20002;-74
2023/09/27 04:07:43;;;;;;;14.63;7.93;;;;;;;8.24;100.00;99010.41;6108724;19;20487;-73
2023/09/27 04:09:47;;;;;;;12.77;8.70;;;;;;;8.14;100.00;99015.25;6107933;19;20466;-74
2023/09/27 04:11:47;;;;;;;11.32;7.60;;;;;;;8.05;100.00;99019.31;6109038;19;20034;-73
2023/09/27 04:13:48;;;;;;;12.02;7.57;;;;;;;8.00;100.00;99023.09;6109187;19;20466;-74
2023/09/27 04:15:49;;;;;;;15.00;8.52;;;;;;;7.98;100.00;99022.63;6109279;19;20458;-73
2023/09/27 04:17:49;;;;;;;10.73;8.05;;;;;;;7.92;100.00;99015.75;6109187;19;20006;-74
2023/09/27 04:19:51;;;;;;;16.15;8.52;;;;;;;7.94;100.00;99026.44;6108349;19;20030;-74
2023/09/27 04:21:51;;;;;;;12.93;8.20;;;;;;;7.91;100.00;99025.19;6105806;19;20091;-73
2023/09/27 04:23:59;;;;;;;14.38;10.07;;;;;;;7.85;100.00;99027.34;6108598;19;20014;-74
2023/09/27 04:26:00;;;;;;;14.82;9.43;;;;;;;7.82;100.00;99030.81;6109593;19;20059;-74
2023/09/27 04:28:01;;;;;;;13.27;9.55;;;;;;;7.78;100.00;99037.38;6108146;19;20347;-73
2023/09/27 04:30:03;;;;;;;19.17;11.98;;;;;;;7.71;100.00;99045.41;6107467;19;20337;-73
2023/09/27 04:32:04;;;;;;;17.43;10.97;;;;;;;7.69;100.00;99042.19;6107865;19;20358;-73
2023/09/27 04:34:04;;;;;;;18.27;11.57;;;;;;;7.65;100.00;99050.34;6108447;19;20278;-73
2023/09/27 04:36:05;;;;;;;17.60;11.52;;;;;;;7.69;100.00;99048.50;6108263;19;20010;-73
2023/09/27 04:38:05;;;;;;;18.27;11.85;;;;;;;7.66;100.00;99043.69;6108574;19;20010;-73
2023/09/27 04:40:17;;;;;;;18.25;12.23;;;;;;;7.62;100.00;99051.03;6106583;19;20715;-73
2023/09/27 04:42:17;;;;;;;18.05;11.48;;;;;;;7.57;100.00;99054.00;6107927;19;20006;-73
2023/09/27 04:44:17;;;;;;;15.45;10.75;;;;;;;7.57;100.00;99059.53;6107982;19;20421;-73
2023/09/27 04:46:18;;;;;;;15.93;11.13;;;;;;;7.52;100.00;99063.28;6108550;19;20465;-73
2023/09/27 04:48:18;;;;;;;14.20;10.48;;;;;;;7.51;100.00;99055.38;6109594;19;20025;-73
2023/09/27 04:50:19;;;;;;;15.80;10.55;;;;;;;7.50;100.00;99049.06;6106225;19;20021;-74
2023/09/27 04:52:20;;;;;;;13.80;10.48;;;;;;;7.57;100.00;99054.81;6109137;19;20003;-73
2023/09/27 04:54:20;;;;;;;14.18;9.88;;;;;;;7.59;100.00;99060.78;6109362;19;20474;-73
2023/09/27 04:56:21;;;;;;;17.63;10.43;;;;;;;7.57;100.00;99054.00;6107211;19;20022;-73
2023/09/27 04:58:21;;;;;;;13.75;9.23;;;;;;;7.58;100.00;99074.88;6108607;19;20006;-73
2023/09/27 05:00:22;;;;;;;13.77;9.68;;;;;;;7.53;100.00;99078.69;6108063;19;20010;-73
2023/09/27 05:02:23;;;;;;;15.23;9.43;;;;;;;7.58;100.00;99077.66;6107487;19;20032;-74
2023/09/27 05:04:23;;;;;;;13.20;9.20;;;;;;;7.65;100.00;99083.38;6109056;19;20019;-73
2023/09/27 05:06:24;;;;;;;12.43;9.43;;;;;;;7.69;100.00;99089.81;6105801;19;20007;-73
2023/09/27 05:08:25;;;;;;;14.30;9.77;;;;;;;7.76;100.00;99101.06;6108261;19;20438;-73
2023/09/27 05:10:26;;;;;;;13.65;9.77;;;;;;;7.66;100.00;99104.28;6106445;19;20504;-73
2023/09/27 05:12:27;;;;;;;13.65;9.15;;;;;;;7.64;100.00;99108.53;6107777;19;20621;-73
2023/09/27 05:14:27;;;;;;;13.15;9.27;;;;;;;7.60;100.00;99111.16;6107679;19;20010;-74
2023/09/27 05:16:28;;;;;;;17.65;9.90;;;;;;;7.55;100.00;99120.44;6108213;19;20010;-73
2023/09/27 05:18:29;;;;;;;19.15;10.10;;;;;;;7.55;100.00;99130.66;6107162;19;20013;-73
2023/09/27 05:20:29;;;;;;;16.38;8.85;;;;;;;7.56;100.00;99121.25;6105561;19;19999;-73
2023/09/27 05:22:30;;;;;;;14.70;9.20;;;;;;;7.60;100.00;99111.94;6108548;19;20030;-73
2023/09/27 05:24:32;;;;;;;15.43;8.52;;;;;;;7.69;100.00;99119.28;6107332;19;20009;-74
2023/09/27 05:26:33;;;;;;;;;;;;;;;7.75;100.00;99123.44;6108378;19;20011;-73
2023/09/27 05:28:33;;;;;;;17.55;10.90;;;;;;;7.71;100.00;99128.84;6107764;19;19915;-73
2023/09/27 05:30:34;;;;;;;16.52;9.98;;;;;;;7.70;100.00;99120.94;6106908;19;20082;-73
2023/09/27 05:32:34;;;;;;;22.60;10.68;;;;;;;7.71;100.00;99120.59;6107417;19;20026;-74
2023/09/27 05:34:34;;;;;;;16.50;9.68;;;;;;;7.73;100.00;99126.53;6108374;19;20006;-73
2023/09/27 05:36:35;;;;;;;15.65;9.15;;;;;;;7.76;100.00;99131.34;6107023;19;20002;-73
2023/09/27 05:38:35;;;;;;;13.70;9.85;;;;;;;7.76;100.00;99133.31;6107306;19;20011;-73
2023/09/27 05:40:36;;;;;;;16.70;9.55;;;;;;;7.77;100.00;99121.13;6089970;19;19999;-73
2023/09/27 05:42:37;;;;;;;25.38;10.35;;;;;;;7.80;100.00;99124.03;6107063;19;20394;-73
2023/09/27 05:44:38;;;;;;;28.83;11.45;;;;;;;7.85;100.00;99118.28;6107497;19;19998;-74
2023/09/27 05:46:40;;;;;;;22.58;11.02;;;;;;;7.89;100.00;99113.69;6107826;19;20006;-73
2023/09/27 05:48:40;;;;;;;16.30;9.93;;;;;;;7.93;100.00;99108.28;6106435;19;20007;-74
2023/09/27 05:50:44;;;;;;;13.93;9.38;;;;;;;7.96;100.00;99102.09;6096103;19;20006;-73
2023/09/27 05:52:46;;;;;;;14.05;9.70;;;;;;;7.95;100.00;99106.00;6106101;19;20078;-73
2023/09/27 05:54:46;;;;;;;18.17;9.68;;;;;;;7.97;100.00;99100.94;6106040;19;20494;-74
2023/09/27 05:56:51;;;;;;;14.43;8.80;;;;;;;7.98;100.00;99099.00;6107234;19;20010;-74
2023/09/27 05:58:51;;;;;;;16.10;9.52;;;;;;;8.00;100.00;99085.66;6106285;19;20022;-73
2023/09/27 06:00:54;;;;;;;18.77;9.10;;;;;;;8.00;100.00;99085.66;6105062;19;20003;-74
2023/09/27 06:02:54;;;;;;;16.58;9.43;;;;;;;8.02;100.00;99092.44;6106914;19;20002;-73
2023/09/27 06:04:55;;;;;;;14.75;9.63;;;;;;;8.01;100.00;99087.28;6105790;19;20006;-74
2023/09/27 06:06:55;;;;;;;13.52;9.48;;;;;;;8.00;100.00;99085.66;6103280;19;20318;-73
2023/09/27 06:08:56;;;;;;;14.35;9.60;;;;;;;7.98;100.00;99079.72;6110544;19;20017;-73
2023/09/27 06:10:56;;;;;;;15.20;9.45;;;;;;;8.00;100.00;99088.41;6110489;19;20044;-73
2023/09/27 06:12:57;;;;;;;13.52;8.68;;;;;;;8.00;100.00;99078.19;6112475;19;20007;-74
2023/09/27 06:14:57;;;;;;;16.95;9.02;;;;;;;8.06;100.00;99079.59;6112091;19;20033;-74
2023/09/27 06:16:59;;;;;;;11.88;8.07;;;;;;;8.11;100.00;99081.31;6111099;19;20002;-74
2023/09/27 06:18:59;;;;;;;15.18;9.10;;;;;;;8.15;100.00;99076.69;6111922;19;20321;-73
2023/09/27 06:20:59;;;;;;;14.52;8.52;;;;;;;8.24;100.00;99077.38;6111418;19;20006;-73
2023/09/27 06:23:03;;;;;;;13.10;8.38;;;;;;;8.32;100.00;99075.63;6111347;19;20017;-74
2023/09/27 06:25:04;;;;;;;18.23;8.52;;;;;;;8.41;100.00;99082.63;6111708;19;20038;-73
2023/09/27 06:27:04;;;;;;;13.77;8.95;;;;;;;8.49;100.00;99071.81;6112796;19;20085;-73
2023/09/27 06:29:05;;;;;;;16.05;9.07;;;;;;;8.57;100.00;99077.19;6111353;19;20010;-74
2023/09/27 06:31:06;;;;;;;12.45;8.43;;;;;;;8.63;100.00;99083.28;6110583;19;20015;-74
2023/09/27 06:33:08;;;;;;;14.30;8.70;;;;;;;8.68;100.00;99074.72;6112146;19;20427;-73
2023/09/27 06:35:14;;;;;;;;;;;;;;;8.73;100.00;99069.78;6111247;19;20353;-74
2023/09/27 06:37:15;;;;;;;16.77;8.90;;;;;;;8.81;100.00;99068.00;6112763;19;20215;-74
2023/09/27 06:39:16;;;;;;;14.30;8.98;;;;;;;8.87;100.00;99069.38;6111275;19;20020;-74
2023/09/27 06:41:17;;;;;;;12.82;8.68;;;;;;;8.97;100.00;99077.13;6110663;19;20011;-73
2023/09/27 06:43:17;;;;;;;17.65;9.25;;;;;;;9.05;100.00;99086.41;6112424;19;20472;-73
2023/09/27 06:45:19;;;;;;;18.52;10.52;;;;;;;9.12;100.00;99077.53;6110769;19;20684;-74
2023/09/27 06:47:20;;;;;;;14.98;10.30;;;;;;;9.17;100.00;99080.00;6112162;19;20002;-73
2023/09/27 06:49:20;;;;;;;14.57;9.43;;;;;;;9.26;100.00;99083.41;6110546;19;20454;-74
2023/09/27 06:51:21;;;;;;;14.48;10.05;;;;;;;9.34;100.00;99081.63;6103147;19;20486;-74
2023/09/27 06:53:21;;;;;;;16.52;9.70;;;;;;;9.40;100.00;99077.47;6103910;19;20003;-74
2023/09/27 06:55:22;;;;;;;16.25;10.75;;;;;;;9.47;100.00;99091.47;6104652;19;20017;-73
2023/09/27 06:57:23;;;;;;;16.70;11.50;;;;;;;9.55;100.00;99084.94;6103820;19;20338;-74
2023/09/27 06:59:23;;;;;;;15.25;10.77;;;;;;;9.62;100.00;99093.44;6103888;19;19999;-74
2023/09/27 07:01:26;;;;;;;22.75;12.23;;;;;;;9.73;100.00;99088.16;6102690;19;20022;-74
2023/09/27 07:03:29;;;;;;;20.02;12.27;;;;;;;9.84;100.00;99094.72;6104637;19;20504;-74
2023/09/27 07:05:29;;;;;;;18.80;12.93;;;;;;;9.95;100.00;99095.81;6102979;19;20094;-74
2023/09/27 07:07:30;;;;;;;17.13;13.07;;;;;;;10.06;100.00;99101.59;6104037;19;20027;-74
2023/09/27 07:09:34;;;;;;;20.08;12.93;;;;;;;10.20;100.00;99107.44;6102674;19;20239;-74
2023/09/27 07:11:34;;;;;;;18.17;12.55;;;;;;;10.29;100.00;99097.00;6104164;19;20006;-74
2023/09/27 07:13:37;;;;;;;24.80;13.07;;;;;;;10.34;100.00;99105.03;6102149;19;20420;-73
2023/09/27 07:15:37;;;;;;;;;;;;;;;10.42;100.00;99100.44;6104712;19;20006;-74
2023/09/27 07:17:38;;;;;;;16.58;11.27;;;;;;;10.46;100.00;99093.03;6103579;19;19911;-74
2023/09/27 07:19:38;;;;;;;15.75;10.75;;;;;;;10.53;100.00;99101.50;6102597;19;20099;-74
2023/09/27 07:21:39;;;;;;;16.67;12.00;;;;;;;10.60;100.00;99101.66;6102125;19;20010;-74
2023/09/27 07:23:39;;;;;;;13.80;11.48;;;;;;;10.66;100.00;99105.72;6103912;19;20007;-74
2023/09/27 07:25:40;;;;;;;19.50;12.10;;;;;;;10.76;100.00;99098.00;6104646;19;20038;-74
2023/09/27 07:27:43;;;;;;;20.75;12.40;;;;;;;10.86;100.00;99119.56;6103861;19;20018;-74
2023/09/27 07:29:43;;;;;;;16.20;12.60;;;;;;;10.98;100.00;99119.41;6102135;19;20027;-74
2023/09/27 07:31:44;;;;;;;19.67;11.30;;;;;;;11.04;100.00;99112.41;6103198;19;20343;-74
2023/09/27 07:33:46;;;;;;;15.88;11.55;;;;;;;11.09;100.00;99112.13;6103109;19;20007;-74
2023/09/27 07:35:51;;;;;;;16.88;11.57;;;;;;;11.17;100.00;99116.66;6102952;19;20049;-74
2023/09/27 07:37:52;;;;;;;16.52;12.60;;;;;;;11.27;100.00;99115.25;6102601;19;20027;-74
2023/09/27 07:39:52;;;;;;;23.27;13.85;;;;;;;11.35;100.00;99118.94;6101454;19;20785;-74
2023/09/27 07:41:53;;;;;;;18.85;12.02;;;;;;;11.44;100.00;99122.28;6103193;19;20010;-74
2023/09/27 07:43:53;;;;;;;14.70;11.90;;;;;;;11.57;100.00;99125.66;6102870;19;20002;-74
2023/09/27 07:45:54;;;;;;;18.70;11.63;;;;;;;11.64;100.00;99131.34;6102787;19;20344;-74
2023/09/27 07:47:55;;;;;;;16.63;11.93;;;;;;;11.79;100.00;99130.41;6102950;19;20034;-74
2023/09/27 07:49:55;;;;;;;17.35;13.55;;;;;;;12.03;100.00;99127.28;6101585;19;20341;-74
2023/09/27 07:51:56;;;;;;;20.45;13.43;;;;;;;12.23;100.00;99133.53;6109565;19;20007;-74
2023/09/27 07:53:56;;;;;;;18.45;12.27;;;;;;;12.35;100.00;99126.97;6110468;19;20344;-74
2023/09/27 07:55:57;;;;;;;26.30;14.00;;;;;;;12.45;100.00;99118.00;6109202;19;20010;-74
2023/09/27 07:57:58;;;;;;;16.08;11.82;;;;;;;12.52;100.00;99125.63;6109801;19;20026;-74
2023/09/27 07:59:59;;;;;;;14.93;11.15;;;;;;;12.56;100.00;99121.72;6107507;19;20362;-74
2023/09/27 08:02:00;;;;;;;14.52;11.75;;;;;;;12.60;100.00;99117.03;6109263;19;20013;-74
2023/09/27 08:04:06;;;;;;;18.65;11.80;;;;;;;12.69;100.00;99125.06;6109466;19;20010;-74
2023/09/27 08:06:07;;;;;;;14.20;10.05;;;;;;;12.76;100.00;99125.16;6106384;19;20020;-74
2023/09/27 08:08:12;;;;;;;20.10;12.35;;;;;;;12.89;100.00;99120.97;6108985;19;20006;-74
2023/09/27 08:10:13;;;;;;;15.65;11.43;;;;;;;12.97;100.00;99121.03;6108738;19;20009;-74
2023/09/27 08:12:13;;;;;;;17.75;11.93;;;;;;;13.09;100.00;99126.38;6108779;19;20006;-74
2023/09/27 08:14:18;;;;;;;17.10;11.00;;;;;;;13.16;100.00;99123.69;6108887;19;20006;-74
2023/09/27 08:16:18;;;;;;;22.13;11.57;;;;;;;13.24;100.00;99125.38;6108714;19;20018;-74
2023/09/27 08:18:19;;;;;;;14.13;10.20;;;;;;;13.32;100.00;99135.41;6108871;19;20339;-74
2023/09/27 08:20:19;;;;;;;12.88;9.23;;;;;;;13.39;100.00;99129.09;6108249;19;20003;-74
2023/09/27 08:22:20;;;;;;;18.15;9.77;;;;;;;13.44;100.00;99121.22;6108935;19;20005;-74
2023/09/27 08:24:20;;;;;;;14.63;10.13;;;;;;;13.62;100.00;99120.59;6109786;19;20015;-74
2023/09/27 08:26:20;;;;;;;17.08;10.90;;;;;;;13.74;100.00;99117.53;6109926;19;20149;-74
2023/09/27 08:28:21;;;;;;;13.32;9.20;;;;;;;13.83;100.00;99120.00;6109517;19;20506;-74
2023/09/27 08:30:22;;;;;;;12.60;9.90;;;;;;;13.98;100.00;99113.34;6107303;19;20046;-74
2023/09/27 08:32:22;;;;;;;14.00;10.02;;;;;;;14.10;100.00;99123.41;6110104;19;20006;-74
2023/09/27 08:34:23;;;;;;;11.40;9.50;;;;;;;14.20;100.00;99114.31;6108128;19;20293;-74
2023/09/27 08:36:23;;;;;;;14.38;9.52;;;;;;;14.28;100.00;99108.41;6110299;19;20018;-74
2023/09/27 08:38:24;;;;;;;12.82;8.77;;;;;;;14.33;100.00;99110.03;6109438;19;20002;-74
2023/09/27 08:40:24;;;;;;;14.48;8.48;;;;;;;14.40;100.00;99104.53;6107967;19;20010;-74
2023/09/27 08:42:25;;;;;;;10.82;8.27;;;;;;;14.50;100.00;99101.03;6109001;19;20023;-74
2023/09/27 08:44:26;;;;;;;11.00;8.43;;;;;;;14.59;100.00;99106.25;6109886;19;20073;-74
2023/09/27 08:46:30;;;;;;;10.32;7.97;;;;;;;14.70;100.00;99097.94;6108569;19;20018;-74
2023/09/27 08:48:31;;;;;;;11.60;8.43;;;;;;;14.84;100.00;99106.38;6108394;19;20336;-74
2023/09/27 08:50:33;;;;;;;11.55;8.23;;;;;;;15.04;100.00;99101.25;6107613;19;20021;-74
2023/09/27 08:52:34;;;;;;;10.45;8.55;;;;;;;15.18;100.00;99095.75;6109368;19;20595;-75
2023/09/27 08:54:34;;;;;;;14.45;8.55;;;;;;;15.26;100.00;99094.56;6109037;19;20314;-74
2023/09/27 08:56:35;;;;;;;8.68;7.68;;;;;;;15.36;100.00;99095.78;6108615;19;20013;-74
2023/09/27 08:58:37;;;;;;;10.65;8.32;;;;;;;15.50;100.00;99090.25;6109105;19;20011;-74
2023/09/27 09:00:41;;;;;;;12.40;8.05;;;;;;;15.60;100.00;99097.81;6108057;19;20353;-74
2023/09/27 09:02:48;;;;;;;11.20;7.90;;;;;;;15.71;100.00;99090.28;6107383;19;20026;-74
2023/09/27 09:04:50;;;;;;;9.88;8.23;;;;;;;15.82;100.00;99081.13;6108260;19;20007;-74
2023/09/27 09:06:50;;;;;;;9.85;8.30;;;;;;;15.89;100.00;99089.50;6106614;19;20009;-74
2023/09/27 09:08:51;;;;;;;10.85;8.30;;;;;;;15.95;100.00;99090.69;6108293;19;20698;-74
2023/09/27 09:10:53;;;;;;;10.45;8.80;;;;;;;16.04;100.00;99084.69;6107217;19;20443;-74
2023/09/27 09:12:54;;;;;;;10.35;8.52;;;;;;;16.14;100.00;99079.13;6108544;19;20014;-74
2023/09/27 09:14:54;;;;;;;10.25;7.45;;;;;;;16.20;100.00;99071.13;6107797;19;20040;-74
2023/09/27 09:16:55;;;;;;;9.50;7.65;;;;;;;16.25;100.00;99071.53;6108777;19;20026;-74
2023/09/27 09:18:57;;;;;;;11.68;7.88;;;;;;;16.33;100.00;99075.09;6106489;19;20373;-75